createdAt,value
2018-11-27T00:00:50.598Z,4.80
2018-11-27T00:03:17.651Z,4.80
2018-11-27T00:05:44.695Z,4.80
2018-11-27T00:08:11.765Z,4.70
2018-11-27T00:10:38.797Z,4.50
2018-11-27T00:13:05.840Z,4.97
2018-11-27T00:15:32.839Z,4.70
2018-11-27T00:17:59.836Z,4.30
2018-11-27T00:20:28.830Z,4.50
2018-11-27T00:22:55.782Z,4.70
2018-11-27T00:25:22.725Z,4.40
2018-11-27T00:27:49.776Z,4.80
2018-11-27T00:30:16.818Z,4.70
2018-11-27T00:32:43.770Z,4.50
2018-11-27T00:35:10.815Z,4.53
2018-11-27T00:37:37.889Z,4.23
2018-11-27T00:40:05.012Z,4.80
2018-11-27T00:42:31.912Z,4.57
2018-11-27T00:44:58.909Z,4.40
2018-11-27T00:47:25.953Z,4.63
2018-11-27T00:49:53.002Z,4.50
2018-11-27T00:52:20.870Z,4.40
2018-11-27T00:54:47.919Z,4.47
2018-11-27T00:57:14.972Z,4.43
2018-11-27T00:59:42.021Z,4.43
2018-11-27T01:02:09.068Z,4.10
2018-11-27T01:04:36.120Z,4.50
2018-11-27T01:07:03.162Z,4.47
2018-11-27T01:09:30.214Z,4.10
2018-11-27T01:11:57.266Z,4.17
2018-11-27T01:14:24.308Z,4.37
2018-11-27T01:16:51.358Z,3.93
2018-11-27T01:19:18.411Z,3.90
2018-11-27T01:21:45.350Z,4.10
2018-11-27T01:24:12.296Z,4.00
2018-11-27T01:26:39.348Z,3.57
2018-11-27T01:29:06.346Z,4.10
2018-11-27T01:31:33.341Z,3.87
2018-11-27T01:34:00.395Z,3.70
2018-11-27T01:36:27.436Z,3.13
2018-11-27T01:38:54.588Z,3.33
2018-11-27T01:41:21.637Z,3.37
2018-11-27T01:43:49.810Z,3.37
2018-11-27T01:46:16.861Z,3.40
2018-11-27T01:48:43.805Z,3.47
2018-11-27T01:51:12.298Z,3.50
2018-11-27T01:53:39.444Z,3.60
2018-11-27T01:56:06.487Z,3.60
2018-11-27T01:58:34.151Z,3.73
2018-11-27T02:01:16.241Z,3.70
2018-11-27T02:04:03.605Z,3.53
2018-11-27T02:06:35.660Z,3.50
2018-11-27T02:09:02.691Z,3.30
2018-11-27T02:11:29.745Z,3.50
2018-11-27T02:13:58.631Z,3.30
2018-11-27T02:16:25.681Z,3.27
2018-11-27T02:18:55.086Z,3.40
2018-11-27T02:21:22.133Z,3.40
2018-11-27T02:23:49.081Z,3.90
2018-11-27T02:26:16.127Z,3.47
2018-11-27T02:28:43.181Z,3.80
2018-11-27T02:31:10.225Z,3.63
2018-11-27T02:33:37.274Z,3.80
2018-11-27T02:36:04.328Z,3.97
2018-11-27T02:38:31.372Z,3.50
2018-11-27T02:40:58.420Z,3.80
2018-11-27T02:43:25.365Z,3.77
2018-11-27T02:45:52.414Z,3.80
2018-11-27T02:48:19.471Z,3.80
2018-11-27T02:50:46.517Z,3.80
2018-11-27T02:53:13.562Z,4.07
2018-11-27T02:55:40.614Z,3.90
2018-11-27T02:58:07.657Z,4.00
2018-11-27T03:00:34.707Z,4.17
2018-11-27T03:03:01.782Z,4.00
2018-11-27T03:05:28.803Z,4.60
2018-11-27T03:07:55.851Z,4.40
2018-11-27T03:10:22.849Z,3.80
2018-11-27T03:12:49.850Z,4.27
2018-11-27T03:15:16.898Z,3.97
2018-11-27T03:17:44.252Z,3.73
2018-11-27T03:20:11.311Z,3.77
2018-11-27T03:22:38.353Z,4.03
2018-11-27T03:25:05.396Z,4.30
2018-11-27T03:27:32.596Z,3.80
2018-11-27T03:29:59.595Z,3.97
2018-11-27T03:32:28.503Z,4.03
2018-11-27T03:34:55.536Z,4.40
2018-11-27T03:37:22.909Z,4.43
2018-11-27T03:39:49.933Z,4.10
2018-11-27T03:42:16.990Z,3.87
2018-11-27T03:44:45.575Z,3.63
2018-11-27T03:47:12.934Z,3.43
2018-11-27T03:49:39.977Z,3.23
2018-11-27T03:52:07.045Z,3.43
2018-11-27T03:54:34.391Z,3.43
2018-11-27T03:57:01.434Z,3.50
2018-11-27T03:59:28.482Z,3.10
2018-11-27T04:01:56.347Z,3.00
2018-11-27T04:04:25.144Z,3.10
2018-11-27T04:06:53.110Z,2.77
2018-11-27T04:09:20.169Z,3.33
2018-11-27T04:11:47.524Z,3.40
2018-11-27T04:14:14.560Z,3.47
2018-11-27T04:16:41.609Z,3.20
2018-11-27T04:19:08.665Z,3.30
2018-11-27T04:21:37.445Z,3.30
2018-11-27T04:24:04.393Z,4.00
2018-11-27T04:26:31.874Z,3.50
2018-11-27T04:28:58.902Z,3.10
2018-11-27T04:31:26.162Z,3.63
2018-11-27T04:33:53.202Z,3.27
2018-11-27T04:36:20.255Z,3.33
2018-11-27T04:38:47.298Z,3.60
2018-11-27T04:41:14.346Z,3.40
2018-11-27T04:43:41.401Z,3.60
2018-11-27T04:46:08.444Z,3.40
2018-11-27T04:48:35.493Z,3.50
2018-11-27T04:51:02.553Z,3.77
2018-11-27T04:53:29.590Z,3.27
2018-11-27T04:55:56.638Z,3.30
2018-11-27T04:58:23.694Z,3.87
2018-11-27T05:00:50.737Z,3.87
2018-11-27T05:03:17.784Z,3.83
2018-11-27T05:05:44.788Z,3.33
2018-11-27T05:08:11.778Z,3.67
2018-11-27T05:10:39.236Z,3.10
2018-11-27T05:13:06.132Z,3.50
2018-11-27T05:15:33.136Z,3.43
2018-11-27T05:18:00.177Z,3.73
2018-11-27T05:20:27.635Z,4.17
2018-11-27T05:22:54.684Z,4.87
2018-11-27T05:25:21.739Z,4.30
2018-11-27T05:27:48.780Z,4.27
2018-11-27T05:30:15.829Z,4.47
2018-11-27T05:32:42.884Z,3.90
2018-11-27T05:35:09.926Z,3.77
2018-11-27T05:37:36.975Z,4.33
2018-11-27T05:40:04.125Z,4.60
2018-11-27T05:42:31.182Z,3.90
2018-11-27T05:44:58.224Z,4.33
2018-11-27T05:47:25.271Z,3.83
2018-11-27T05:49:57.402Z,3.60
2018-11-27T05:52:24.393Z,4.53
2018-11-27T05:54:51.437Z,20.63
2018-11-27T05:57:18.483Z,21.00
2018-11-27T05:59:45.537Z,5.67
2018-11-27T06:02:12.552Z,21.60
2018-11-27T06:04:39.532Z,12.20
2018-11-27T06:07:07.496Z,5.33
2018-11-27T06:09:34.388Z,3.67
2018-11-27T06:12:01.389Z,3.10
2018-11-27T06:14:28.443Z,3.43
2018-11-27T06:16:55.486Z,3.20
2018-11-27T06:19:22.636Z,3.57
2018-11-27T06:21:50.561Z,3.73
2018-11-27T06:24:17.553Z,3.20
2018-11-27T06:26:44.602Z,4.20
2018-11-27T06:29:11.656Z,3.70
2018-11-27T06:31:38.698Z,3.23
2018-11-27T06:34:05.747Z,6.37
2018-11-27T06:36:32.801Z,3.97
2018-11-27T06:38:59.844Z,4.00
2018-11-27T06:41:26.892Z,3.50
2018-11-27T06:43:56.500Z,3.37
2018-11-27T06:46:23.493Z,2.27
2018-11-27T06:48:50.497Z,2.60
2018-11-27T06:51:17.554Z,3.67
2018-11-27T06:53:44.600Z,3.33
2018-11-27T06:56:11.643Z,3.17
2018-11-27T06:58:38.696Z,3.10
2018-11-27T07:01:06.663Z,3.27
2018-11-27T07:03:33.816Z,3.30
2018-11-27T07:06:00.862Z,3.40
2018-11-27T07:08:27.915Z,27.57
2018-11-27T07:10:54.956Z,13.57
2018-11-27T07:13:21.908Z,16.83
2018-11-27T07:15:48.992Z,4.80
2018-11-27T07:18:16.000Z,4.33
2018-11-27T07:20:43.056Z,4.00
2018-11-27T07:23:10.095Z,4.40
2018-11-27T07:25:37.144Z,4.13
2018-11-27T07:28:04.091Z,6.10
2018-11-27T07:30:31.095Z,3.90
2018-11-27T07:32:58.086Z,5.17
2018-11-27T07:35:26.058Z,4.17
2018-11-27T07:37:53.209Z,5.23
2018-11-27T07:40:20.262Z,4.53
2018-11-27T07:42:47.304Z,4.13
2018-11-27T07:45:14.356Z,4.23
2018-11-27T07:47:41.406Z,4.37
2018-11-27T07:50:08.452Z,4.20
2018-11-27T07:52:35.499Z,4.80
2018-11-27T07:55:02.859Z,4.23
2018-11-27T07:57:29.903Z,4.17
2018-11-27T07:59:56.952Z,5.00
2018-11-27T08:02:23.896Z,5.00
2018-11-27T08:04:50.946Z,4.90
2018-11-27T08:07:17.999Z,4.80
2018-11-27T08:09:45.043Z,4.77
2018-11-27T08:12:12.092Z,4.97
2018-11-27T08:14:39.499Z,4.27
2018-11-27T08:17:06.495Z,4.30
2018-11-27T08:19:33.546Z,4.90
2018-11-27T08:22:00.598Z,4.27
2018-11-27T08:24:27.592Z,3.20
2018-11-27T08:26:54.592Z,4.37
2018-11-27T08:29:22.716Z,4.43
2018-11-27T08:31:49.708Z,4.40
2018-11-27T08:34:16.756Z,4.50
2018-11-27T08:36:45.623Z,3.73
2018-11-27T08:39:12.595Z,4.03
2018-11-27T08:41:40.224Z,4.37
2018-11-27T08:44:06.799Z,4.87
2018-11-27T08:46:34.873Z,4.27
2018-11-27T08:49:01.914Z,4.23
2018-11-27T08:51:29.270Z,4.47
2018-11-27T08:53:56.265Z,3.70
2018-11-27T08:56:25.161Z,3.60
2018-11-27T08:58:55.694Z,3.90
2018-11-27T09:01:22.692Z,15.93
2018-11-27T09:03:49.737Z,3.63
2018-11-27T09:06:16.784Z,5.67
2018-11-27T09:08:44.082Z,3.20
2018-11-27T09:11:10.882Z,3.73
2018-11-27T09:13:37.843Z,3.97
2018-11-27T09:16:05.084Z,4.47
2018-11-27T09:18:32.134Z,3.30
2018-11-27T09:20:59.181Z,3.70
2018-11-27T09:23:26.228Z,3.33
2018-11-27T09:25:53.383Z,3.53
2018-11-27T09:28:20.432Z,5.00
2018-11-27T09:30:47.424Z,5.23
2018-11-27T09:33:14.426Z,5.30
2018-11-27T09:35:41.471Z,4.63
2018-11-27T09:38:08.623Z,5.80
2018-11-27T09:40:35.671Z,15.53
2018-11-27T09:43:02.616Z,4.73
2018-11-27T09:45:29.669Z,15.90
2018-11-27T09:47:56.741Z,9.27
2018-11-27T09:50:23.767Z,3.73
2018-11-27T09:52:50.813Z,3.67
2018-11-27T09:55:17.919Z,3.73
2018-11-27T09:57:44.912Z,4.50
2018-11-27T10:00:12.781Z,5.40
2018-11-27T10:02:39.824Z,4.20
2018-11-27T10:05:06.872Z,3.90
2018-11-27T10:07:33.932Z,4.43
2018-11-27T10:10:00.969Z,3.93
2018-11-27T10:12:28.022Z,3.97
2018-11-27T10:14:55.077Z,3.80
2018-11-27T10:17:22.114Z,4.10
2018-11-27T10:19:49.164Z,4.30
2018-11-27T10:22:16.111Z,4.27
2018-11-27T10:24:43.159Z,4.13
2018-11-27T10:27:10.411Z,4.47
2018-11-27T10:29:37.461Z,3.67
2018-11-27T10:32:05.437Z,4.00
2018-11-27T10:34:32.431Z,4.20
2018-11-27T10:36:59.431Z,3.97
2018-11-27T10:39:26.477Z,3.80
2018-11-27T10:42:08.537Z,2.73
2018-11-27T10:44:35.520Z,3.30
2018-11-27T10:47:02.570Z,3.67
2018-11-27T10:49:29.648Z,3.80
2018-11-27T10:51:56.669Z,3.40
2018-11-27T10:54:23.717Z,3.70
2018-11-27T10:56:50.720Z,3.57
2018-11-27T10:59:17.920Z,3.37
2018-11-27T11:01:44.964Z,4.10
2018-11-27T11:04:12.016Z,3.90
2018-11-27T11:06:39.065Z,3.37
2018-11-27T11:09:06.218Z,3.50
2018-11-27T11:11:33.261Z,3.53
2018-11-27T11:14:00.308Z,3.10
2018-11-27T11:16:27.363Z,3.20
2018-11-27T11:18:54.407Z,3.50
2018-11-27T11:21:21.455Z,3.07
2018-11-27T11:23:48.817Z,3.47
2018-11-27T11:26:15.858Z,3.33
2018-11-27T11:28:42.912Z,3.40
2018-11-27T11:31:09.961Z,3.43
2018-11-27T11:33:36.902Z,3.60
2018-11-27T11:36:03.956Z,3.47
2018-11-27T11:38:30.999Z,4.20
2018-11-27T11:40:57.952Z,4.70
2018-11-27T11:43:24.994Z,3.83
2018-11-27T11:45:52.056Z,4.47
2018-11-27T11:48:19.096Z,3.63
2018-11-27T11:50:46.139Z,4.00
2018-11-27T11:53:13.187Z,4.13
2018-11-27T11:55:40.242Z,4.47
2018-11-27T11:58:07.285Z,4.40
2018-11-27T12:00:34.334Z,4.90
2018-11-27T12:03:01.388Z,4.47
2018-11-27T12:05:30.274Z,4.53
2018-11-27T12:07:57.322Z,4.63
2018-11-27T12:10:24.377Z,4.33
2018-11-27T12:12:51.420Z,3.60
2018-11-27T12:15:18.469Z,4.20
2018-11-27T12:17:45.523Z,3.83
2018-11-27T12:20:12.513Z,4.10
2018-11-27T12:22:39.519Z,4.00
2018-11-27T12:25:06.559Z,4.70
2018-11-27T12:27:33.610Z,4.50
2018-11-27T12:30:00.970Z,4.03
2018-11-27T12:32:28.015Z,3.80
2018-11-27T12:34:55.061Z,4.10
2018-11-27T12:37:22.010Z,4.10
2018-11-27T12:39:48.959Z,4.10
2018-11-27T12:42:16.007Z,4.23
2018-11-27T12:44:43.056Z,4.33
2018-11-27T12:47:10.203Z,5.73
2018-11-27T12:49:37.260Z,7.63
2018-11-27T12:52:04.304Z,4.00
2018-11-27T12:54:31.349Z,4.63
2018-11-27T12:56:58.403Z,4.07
2018-11-27T12:59:32.716Z,3.90
2018-11-27T13:01:59.769Z,4.30
2018-11-27T13:04:27.325Z,4.70
2018-11-27T13:06:54.379Z,4.63
2018-11-27T13:09:21.319Z,5.30
2018-11-27T13:11:48.375Z,4.90
2018-11-27T13:14:17.158Z,4.67
2018-11-27T13:16:44.227Z,4.77
2018-11-27T13:19:11.255Z,5.40
2018-11-27T13:21:38.611Z,5.13
2018-11-27T13:24:05.664Z,5.90
2018-11-27T13:26:32.660Z,4.70
2018-11-27T13:29:00.370Z,4.53
2018-11-27T13:31:27.424Z,4.37
2018-11-27T13:33:54.578Z,4.00
2018-11-27T13:36:21.618Z,8.10
2018-11-27T13:38:48.975Z,4.40
2018-11-27T13:41:15.976Z,5.47
2018-11-27T13:43:42.973Z,4.33
2018-11-27T13:46:10.023Z,4.67
2018-11-27T13:48:37.068Z,4.37
2018-11-27T13:51:04.118Z,4.33
2018-11-27T13:53:31.174Z,4.47
2018-11-27T13:55:58.211Z,4.37
2018-11-27T13:58:25.260Z,4.17
2018-11-27T14:00:52.313Z,4.90
2018-11-27T14:03:19.357Z,4.23
2018-11-27T14:05:46.407Z,4.50
2018-11-27T14:08:13.470Z,13.73
2018-11-27T14:10:40.506Z,17.10
2018-11-27T14:13:07.560Z,6.33
2018-11-27T14:15:34.625Z,5.67
2018-11-27T14:18:01.654Z,7.50
2018-11-27T14:20:28.703Z,6.13
2018-11-27T14:22:56.466Z,10.53
2018-11-27T14:25:24.227Z,10.20
2018-11-27T14:27:51.285Z,10.00
2018-11-27T14:30:18.326Z,6.30
2018-11-27T14:32:45.373Z,9.23
2018-11-27T14:35:12.430Z,8.43
2018-11-27T14:37:39.470Z,6.10
2018-11-27T14:40:06.519Z,6.90
2018-11-27T14:42:33.575Z,6.50
2018-11-27T14:45:00.615Z,6.40
2018-11-27T14:47:28.278Z,7.33
2018-11-27T14:49:55.224Z,6.93
2018-11-27T14:52:22.274Z,6.90
2018-11-27T14:54:49.328Z,6.20
2018-11-27T14:57:16.316Z,6.70
2018-11-27T14:59:43.322Z,7.73
2018-11-27T15:02:10.316Z,8.50
2018-11-27T15:04:37.320Z,8.70
2018-11-27T15:07:04.363Z,12.07
2018-11-27T15:09:31.408Z,12.27
2018-11-27T15:11:58.464Z,11.17
2018-11-27T15:14:25.578Z,12.30
2018-11-27T15:16:52.577Z,11.17
2018-11-27T15:19:19.609Z,11.80
2018-11-27T15:21:46.653Z,8.23
2018-11-27T15:24:13.699Z,10.13
2018-11-27T15:26:40.756Z,9.10
2018-11-27T15:29:07.801Z,7.93
2018-11-27T15:31:34.847Z,8.00
2018-11-27T15:34:01.903Z,7.13
2018-11-27T15:36:29.155Z,7.03
2018-11-27T15:38:56.204Z,7.30
2018-11-27T15:41:23.195Z,6.60
2018-11-27T15:43:50.198Z,5.10
2018-11-27T15:46:17.244Z,5.37
2018-11-27T15:48:44.294Z,5.00
2018-11-27T15:51:12.464Z,4.73
2018-11-27T15:53:39.417Z,4.90
2018-11-27T15:56:06.460Z,4.30
2018-11-27T15:58:33.510Z,4.30
2018-11-27T16:01:00.564Z,4.57
2018-11-27T16:03:27.604Z,3.60
2018-11-27T16:05:54.655Z,3.63
2018-11-27T16:08:21.706Z,3.40
2018-11-27T16:10:48.750Z,3.40
2018-11-27T16:13:15.824Z,4.07
2018-11-27T16:15:42.853Z,5.27
2018-11-27T16:18:09.896Z,4.73
2018-11-27T16:20:37.250Z,4.40
2018-11-27T16:23:04.307Z,4.60
2018-11-27T16:25:31.298Z,5.83
2018-11-27T16:27:58.240Z,5.93
2018-11-27T16:30:25.241Z,7.00
2018-11-27T16:32:52.295Z,5.67
2018-11-27T16:35:19.340Z,6.20
2018-11-27T16:37:46.386Z,7.83
2018-11-27T16:40:13.441Z,9.17
2018-11-27T16:42:40.484Z,10.43
2018-11-27T16:45:07.533Z,6.67
2018-11-27T16:47:34.588Z,7.87
2018-11-27T16:50:01.835Z,6.00
2018-11-27T16:52:28.893Z,16.97
2018-11-27T16:54:55.932Z,18.80
2018-11-27T16:57:22.980Z,17.50
2018-11-27T16:59:50.037Z,18.23
2018-11-27T17:02:17.081Z,12.80
2018-11-27T17:04:44.127Z,12.17
2018-11-27T17:07:11.687Z,14.13
2018-11-27T17:09:38.736Z,24.63
2018-11-27T17:12:05.789Z,14.63
2018-11-27T17:14:32.813Z,15.53
2018-11-27T17:16:59.788Z,10.80
2018-11-27T17:19:26.827Z,6.97
2018-11-27T17:21:53.877Z,10.00
2018-11-27T17:24:20.931Z,7.60
2018-11-27T17:26:49.463Z,7.13
2018-11-27T17:29:16.461Z,5.27
2018-11-27T17:31:43.503Z,4.37
2018-11-27T17:34:12.657Z,4.03
2018-11-27T17:36:39.649Z,3.93
2018-11-27T17:39:06.697Z,3.50
2018-11-27T17:41:33.751Z,3.93
2018-11-27T17:44:00.793Z,3.23
2018-11-27T17:46:29.927Z,4.00
2018-11-27T17:48:57.269Z,4.10
2018-11-27T17:51:24.294Z,3.80
2018-11-27T17:53:51.656Z,3.63
2018-11-27T17:56:18.699Z,4.20
2018-11-27T17:58:45.803Z,4.73
2018-11-27T18:01:13.207Z,4.57
2018-11-27T18:03:41.074Z,3.83
2018-11-27T18:06:08.122Z,3.90
2018-11-27T18:08:35.176Z,4.17
2018-11-27T18:11:02.219Z,3.73
2018-11-27T18:13:29.270Z,3.77
2018-11-27T18:15:56.323Z,4.20
2018-11-27T18:18:23.268Z,6.97
2018-11-27T18:20:50.316Z,3.50
2018-11-27T18:23:19.152Z,3.53
2018-11-27T18:25:46.155Z,3.67
2018-11-27T18:28:13.201Z,4.20
2018-11-27T18:30:40.250Z,5.20
2018-11-27T18:33:07.307Z,3.97
2018-11-27T18:35:36.295Z,3.63
2018-11-27T18:38:03.292Z,3.80
2018-11-27T18:40:30.295Z,3.73
2018-11-27T18:42:57.335Z,3.93
2018-11-27T18:45:24.384Z,4.37
2018-11-27T18:47:51.455Z,4.03
2018-11-27T18:50:38.788Z,4.30
2018-11-27T18:53:05.801Z,4.00
2018-11-27T18:55:32.796Z,4.17
2018-11-27T18:57:59.795Z,3.73
2018-11-27T19:00:26.851Z,4.10
2018-11-27T19:02:53.893Z,3.60
2018-11-27T19:05:20.941Z,3.50
2018-11-27T19:07:49.634Z,3.63
2018-11-27T19:10:16.684Z,3.70
2018-11-27T19:12:43.676Z,3.90
2018-11-27T19:15:10.677Z,3.50
2018-11-27T19:17:37.721Z,3.97
2018-11-27T19:20:04.769Z,4.63
2018-11-27T19:22:35.595Z,4.20
2018-11-27T19:25:03.782Z,4.33
2018-11-27T19:27:31.877Z,4.40
2018-11-27T19:29:58.935Z,4.97
2018-11-27T19:32:26.157Z,3.77
2018-11-27T19:34:56.499Z,4.10
2018-11-27T19:37:23.566Z,4.97
2018-11-27T19:39:50.993Z,3.50
2018-11-27T19:42:20.877Z,3.40
2018-11-27T19:44:53.496Z,3.60
2018-11-27T19:47:20.845Z,3.90
2018-11-27T19:49:48.916Z,3.43
2018-11-27T19:52:17.850Z,3.60
2018-11-27T19:54:44.900Z,3.50
2018-11-27T19:57:11.910Z,3.67
2018-11-27T19:59:38.949Z,3.90
2018-11-27T20:02:05.945Z,3.50
2018-11-27T20:04:32.902Z,3.40
2018-11-27T20:07:01.220Z,3.70
2018-11-27T20:09:28.371Z,3.10
2018-11-27T20:11:55.424Z,3.07
2018-11-27T20:14:22.468Z,3.83
2018-11-27T20:16:49.469Z,4.63
2018-11-27T20:19:16.462Z,3.50
2018-11-27T20:21:43.729Z,3.47
2018-11-27T20:24:10.765Z,3.83
2018-11-27T20:26:37.812Z,3.60
2018-11-27T20:29:04.866Z,3.70
2018-11-27T20:31:32.777Z,3.47
2018-11-27T20:34:03.726Z,3.67
2018-11-27T20:36:31.135Z,4.27
2018-11-27T20:38:58.176Z,3.93
2018-11-27T20:41:25.230Z,4.40
2018-11-27T20:43:52.272Z,4.90
2018-11-27T20:46:19.272Z,7.23
2018-11-27T20:48:46.375Z,4.17
2018-11-27T20:51:13.318Z,6.40
2018-11-27T20:53:40.369Z,4.30
2018-11-27T20:56:07.413Z,5.50
2018-11-27T20:58:36.617Z,5.23
2018-11-27T21:01:03.670Z,6.93
2018-11-27T21:03:30.709Z,5.60
2018-11-27T21:05:58.167Z,4.90
2018-11-27T21:08:25.215Z,4.83
2018-11-27T21:10:53.697Z,4.33
2018-11-27T21:13:20.746Z,4.93
2018-11-27T21:15:47.838Z,3.80
2018-11-27T21:18:15.457Z,5.53
2018-11-27T21:20:42.507Z,5.23
2018-11-27T21:23:09.760Z,5.90
2018-11-27T21:25:36.812Z,5.00
2018-11-27T21:28:03.866Z,4.10
2018-11-27T21:30:30.906Z,7.33
2018-11-27T21:32:57.961Z,12.80
2018-11-27T21:35:26.440Z,13.33
2018-11-27T21:37:56.820Z,6.30
2018-11-27T21:40:24.117Z,6.70
2018-11-27T21:42:51.167Z,7.80
2018-11-27T21:45:18.222Z,7.80
2018-11-27T21:47:45.263Z,6.00
2018-11-27T21:50:12.314Z,5.00
2018-11-27T21:52:40.485Z,5.50
2018-11-27T21:55:07.535Z,5.27
2018-11-27T21:57:35.203Z,5.70
2018-11-27T22:00:03.173Z,5.43
2018-11-27T22:02:30.216Z,4.20
2018-11-27T22:04:57.271Z,4.80
2018-11-27T22:07:24.373Z,4.83
2018-11-27T22:09:51.362Z,3.33
2018-11-27T22:12:18.415Z,3.87
2018-11-27T22:14:47.174Z,4.00
2018-11-27T22:17:16.403Z,4.60
2018-11-27T22:19:43.840Z,3.97
2018-11-27T22:22:11.212Z,5.20
2018-11-27T22:24:38.260Z,6.87
2018-11-27T22:27:05.315Z,4.40
2018-11-27T22:29:32.358Z,4.10
2018-11-27T22:31:59.406Z,5.40
2018-11-27T22:34:26.438Z,4.83
2018-11-27T22:36:53.811Z,3.47
2018-11-27T22:39:20.858Z,5.33
2018-11-27T22:41:47.913Z,4.63
2018-11-27T22:44:14.956Z,3.40
2018-11-27T22:46:42.006Z,4.83
2018-11-27T22:49:09.058Z,3.77
2018-11-27T22:51:36.000Z,4.30
2018-11-27T22:54:08.890Z,4.33
2018-11-27T22:56:35.932Z,4.13
2018-11-27T22:59:03.504Z,3.80
2018-11-27T23:01:30.649Z,4.47
2018-11-27T23:03:57.693Z,3.90
2018-11-27T23:06:24.845Z,4.20
2018-11-27T23:08:51.894Z,4.40
2018-11-27T23:11:18.952Z,4.57
2018-11-27T23:13:45.991Z,6.20
2018-11-27T23:16:12.991Z,5.53
2018-11-27T23:18:41.697Z,4.77
2018-11-27T23:21:08.979Z,5.03
2018-11-27T23:23:36.028Z,3.90
2018-11-27T23:28:48.666Z,4.20
2018-11-27T23:31:15.708Z,4.30
2018-11-27T23:33:42.659Z,4.20
2018-11-27T23:36:09.600Z,3.53
2018-11-27T23:38:36.546Z,3.37
2018-11-27T23:41:03.498Z,4.03
2018-11-27T23:43:30.542Z,3.83
2018-11-27T23:45:57.493Z,3.57
2018-11-27T23:48:24.433Z,3.43
2018-11-27T23:50:51.380Z,3.73
2018-11-27T23:53:18.332Z,3.30
2018-11-27T23:55:46.211Z,3.30
2018-11-27T23:58:13.182Z,3.17
